Time;durP1;ratioP1;P1;durP2;ratioP2;P2;SDS_P1;SDS_P2;PMS_P1;PMS_P2;Temp;Humidity;BMP_temperature;BMP_pressure;BME280_temperature;BME280_humidity;BME280_pressure;Samples;Min_cycle;Max_cycle;Signal;HPM_P1;HPM_P2
2022/05/08 00:00:22;;;;;;;4.60;2.37;;;;;;;13.36;100.00;100095.67;1798119;78;21018;-62
2022/05/08 00:02:52;;;;;;;6.33;2.35;;;;;;;13.32;100.00;100089.13;1811333;78;20991;-59
2022/05/08 00:05:18;;;;;;;5.15;2.45;;;;;;;13.32;100.00;100093.22;1826093;78;21145;-59
2022/05/08 00:07:45;;;;;;;8.20;2.52;;;;;;;13.31;100.00;100092.16;1797259;78;21518;-62
2022/05/08 00:10:11;;;;;;;;;;;;;;;13.28;100.00;100079.05;1814726;78;21035;-62
2022/05/08 00:12:37;;;;;;;7.50;2.15;;;;;;;13.27;100.00;100086.42;1815190;78;20115;-61
2022/05/08 00:15:06;;;;;;;4.42;2.15;;;;;;;13.17;100.00;100085.11;1825309;78;21014;-62
2022/05/08 00:17:34;;;;;;;4.95;2.20;;;;;;;13.15;100.00;100080.45;1776803;78;21458;-62
2022/05/08 00:20:05;;;;;;;6.72;2.22;;;;;;;13.14;100.00;100080.21;1814018;78;21066;-62
2022/05/08 00:22:32;;;;;;;6.55;2.37;;;;;;;13.10;100.00;100079.12;1821331;78;21018;-60
2022/05/08 00:25:03;;;;;;;5.20;2.35;;;;;;;13.05;100.00;100072.82;1827326;78;21081;-60
2022/05/08 00:27:30;;;;;;;5.47;2.30;;;;;;;13.01;100.00;100070.38;1805695;78;21533;-61
2022/05/08 00:29:56;;;;;;;4.03;2.17;;;;;;;12.97;100.00;100075.03;1805384;78;21082;-62
2022/05/08 00:32:22;;;;;;;;;;;;;;;12.94;100.00;100070.13;1813048;78;21117;-60
2022/05/08 00:34:51;;;;;;;7.03;2.25;;;;;;;12.90;100.00;100078.61;1811632;78;20102;-61
2022/05/08 00:37:17;;;;;;;9.70;2.22;;;;;;;12.80;100.00;100081.38;1820967;77;21558;-61
2022/05/08 00:39:43;;;;;;;;;;;;;;;12.75;100.00;100083.33;1829002;77;21064;-61
2022/05/08 00:42:10;;;;;;;6.60;2.35;;;;;;;12.70;100.00;100077.32;1819829;77;20483;-61
2022/05/08 00:44:36;;;;;;;;;;;;;;;12.57;100.00;100068.34;1805115;77;21059;-61
2022/05/08 00:47:04;;;;;;;8.10;2.40;;;;;;;12.51;100.00;100072.70;1822380;77;20433;-61
2022/05/08 00:49:35;;;;;;;5.33;2.10;;;;;;;12.38;100.00;100074.93;1817042;78;21081;-61
2022/05/08 00:51:59;;;;;;;6.58;2.30;;;;;;;12.35;100.00;100072.75;1814987;77;21015;-61
2022/05/08 00:54:26;;;;;;;6.40;2.05;;;;;;;12.34;100.00;100067.02;1819421;78;21071;-61
2022/05/08 00:56:53;;;;;;;6.70;2.35;;;;;;;12.30;100.00;100068.66;1823888;77;20991;-61
2022/05/08 00:59:19;;;;;;;4.97;2.35;;;;;;;12.26;100.00;100070.29;1819760;77;21570;-62
2022/05/08 01:01:46;;;;;;;8.05;2.47;;;;;;;12.22;100.00;100073.29;1818483;77;21051;-61
2022/05/08 01:04:13;;;;;;;5.75;2.00;;;;;;;12.18;100.00;100074.14;1812815;78;21609;-61
2022/05/08 01:06:40;;;;;;;5.83;2.33;;;;;;;12.12;100.00;100069.75;1822772;77;21020;-61
2022/05/08 01:09:07;;;;;;;7.40;2.42;;;;;;;12.06;100.00;100068.95;1825481;77;21109;-61
2022/05/08 01:11:33;;;;;;;;;;;;;;;11.99;100.00;100065.67;1807125;77;21026;-61
2022/05/08 01:14:01;;;;;;;7.20;2.70;;;;;;;11.94;100.00;100063.75;1819213;77;20089;-61
2022/05/08 01:16:27;;;;;;;6.37;2.60;;;;;;;11.82;100.00;100058.31;1813932;77;20986;-60
2022/05/08 01:18:54;;;;;;;8.70;3.00;;;;;;;11.81;100.00;100058.84;1822765;77;21610;-62
2022/05/08 01:21:41;;;;;;;7.20;2.83;;;;;;;11.82;100.00;100055.58;1836008;77;21529;-61
2022/05/08 01:24:13;;;;;;;5.80;2.98;;;;;;;11.80;100.00;100057.74;1809575;78;21055;-61
2022/05/08 01:26:39;;;;;;;8.13;2.95;;;;;;;11.78;100.00;100055.84;1828577;77;20978;-61
2022/05/08 01:29:06;;;;;;;;;;;;;;;11.78;100.00;100054.48;1822018;77;21033;-61
2022/05/08 01:31:32;;;;;;;6.90;2.60;;;;;;;11.75;100.00;100050.40;1801594;77;20096;-62
2022/05/08 01:33:58;;;;;;;;;;;;;;;11.66;100.00;100050.61;1801670;77;21024;-61
2022/05/08 01:36:25;;;;;;;7.70;2.75;;;;;;;11.65;100.00;100050.91;1809968;78;20090;-61
2022/05/08 01:38:52;;;;;;;7.70;3.08;;;;;;;11.57;100.00;100054.16;1765770;78;21029;-62
2022/05/08 01:41:18;;;;;;;7.17;3.10;;;;;;;11.56;100.00;100051.14;1770782;80;21006;-61
2022/05/08 01:43:45;;;;;;;6.05;2.58;;;;;;;11.55;100.00;100055.78;1765451;80;21018;-61
2022/05/08 01:46:12;;;;;;;7.95;3.02;;;;;;;11.52;100.00;100049.50;1776080;80;21072;-61
2022/05/08 01:48:39;;;;;;;5.20;2.60;;;;;;;11.47;100.00;100053.06;1770698;80;21435;-62
2022/05/08 01:51:06;;;;;;;5.72;2.25;;;;;;;11.42;100.00;100053.58;1767232;80;21540;-62
2022/05/08 01:53:34;;;;;;;8.65;2.77;;;;;;;11.38;100.00;100054.66;1753819;79;21055;-63
2022/05/08 01:56:04;;;;;;;6.47;2.50;;;;;;;11.33;100.00;100049.22;1748202;80;21643;-62
2022/05/08 01:58:30;;;;;;;6.58;2.47;;;;;;;11.30;100.00;100050.30;1780600;80;21030;-62
2022/05/08 02:00:58;;;;;;;7.12;2.15;;;;;;;11.16;100.00;100034.19;1767664;80;21646;-62
2022/05/08 02:03:24;;;;;;;5.37;2.60;;;;;;;11.25;100.00;100049.73;1776699;80;20966;-62
2022/05/08 02:05:51;;;;;;;8.63;2.65;;;;;;;11.23;100.00;100055.98;1763033;80;21065;-61
2022/05/08 02:08:18;;;;;;;5.15;2.70;;;;;;;11.20;100.00;100059.24;1758076;80;21043;-63
2022/05/08 02:10:46;;;;;;;7.60;2.70;;;;;;;11.18;100.00;100064.70;1746257;81;21073;-62
2022/05/08 02:13:12;;;;;;;6.28;3.00;;;;;;;11.14;100.00;100065.77;1764244;79;21030;-62
2022/05/08 02:15:40;;;;;;;8.65;2.92;;;;;;;11.14;100.00;100063.59;1762067;81;21078;-62
2022/05/08 02:18:09;;;;;;;6.00;2.87;;;;;;;11.11;100.00;100069.57;1766994;81;21025;-61
2022/05/08 02:20:36;;;;;;;6.58;2.72;;;;;;;11.07;100.00;100061.66;1766956;79;21042;-61
2022/05/08 02:23:03;;;;;;;6.37;2.80;;;;;;;11.05;100.00;100067.39;1745843;81;21575;-62
2022/05/08 02:25:30;;;;;;;7.67;3.02;;;;;;;11.02;100.00;100064.37;1762113;81;21081;-62
2022/05/08 02:27:58;;;;;;;6.75;3.08;;;;;;;11.00;100.00;100063.27;1756207;81;20996;-60
2022/05/08 02:30:25;;;;;;;5.50;2.50;;;;;;;10.98;100.00;100070.90;1766925;81;21683;-61
2022/05/08 02:32:53;;;;;;;5.87;2.47;;;;;;;10.94;100.00;100069.79;1761840;81;21113;-61
2022/05/08 02:35:21;;;;;;;11.15;2.62;;;;;;;10.91;100.00;100067.03;1753488;81;21191;-61
2022/05/08 02:37:52;;;;;;;5.95;2.80;;;;;;;10.92;100.00;100062.41;1739884;80;21620;-61
2022/05/08 02:40:19;;;;;;;8.05;2.72;;;;;;;10.95;100.00;100065.95;1792775;80;21059;-61
2022/05/08 02:42:46;;;;;;;6.45;2.90;;;;;;;10.95;100.00;100068.68;1790337;80;21125;-61
2022/05/08 02:45:13;;;;;;;;;;;;;;;10.94;100.00;100065.70;1794907;80;21139;-61
2022/05/08 02:47:42;;;;;;;8.23;3.05;;;;;;;10.95;100.00;100070.05;1796765;80;20112;-61
2022/05/08 02:50:09;;;;;;;;;;;;;;;10.87;100.00;100061.86;1785925;80;21732;-61
2022/05/08 02:52:38;;;;;;;6.53;3.15;;;;;;;10.88;100.00;100063.48;1789868;80;20461;-61
2022/05/08 03:00:37;;;;;;;8.93;3.35;;;;;;;10.91;100.00;100071.69;1791326;80;21082;-61
2022/05/08 03:03:07;;;;;;;6.83;2.90;;;;;;;10.92;100.00;100070.58;1792160;80;21061;-60
2022/05/08 03:05:35;;;;;;;5.42;3.15;;;;;;;10.92;100.00;100073.30;1776761;80;21092;-61
2022/05/08 03:08:07;;;;;;;6.42;3.17;;;;;;;10.94;100.00;100076.59;1795002;80;21025;-61
2022/05/08 03:13:19;;;;;;;6.87;3.17;;;;;;;10.98;100.00;100081.80;1793755;80;21100;-61
2022/05/08 03:15:47;;;;;;;5.40;3.10;;;;;;;11.04;100.00;100085.34;1783852;80;21482;-61
2022/05/08 03:18:16;;;;;;;5.80;3.17;;;;;;;11.10;100.00;100084.27;1789708;78;20967;-60
2022/05/08 03:20:44;;;;;;;8.30;2.80;;;;;;;11.17;100.00;100089.75;1786970;80;21063;-61
2022/05/08 03:23:10;;;;;;;9.80;2.95;;;;;;;11.26;100.00;100090.07;1788897;80;21033;-60
2022/05/08 03:25:36;;;;;;;7.00;2.90;;;;;;;11.35;100.00;100091.17;1788764;80;21663;-62
2022/05/08 03:28:04;;;;;;;6.42;3.17;;;;;;;11.44;100.00;100095.83;1767009;80;20998;-61
2022/05/08 03:30:31;;;;;;;10.63;3.00;;;;;;;11.53;100.00;100098.86;1789418;80;21552;-61
2022/05/08 03:33:01;;;;;;;10.82;3.25;;;;;;;11.61;100.00;100101.61;1772842;80;21050;-61
2022/05/08 03:35:26;;;;;;;5.87;3.00;;;;;;;11.69;100.00;100108.70;1776878;80;21046;-60
2022/05/08 03:37:52;;;;;;;5.65;2.70;;;;;;;11.74;100.00;100108.75;1793202;78;21026;-61
2022/05/08 03:40:19;;;;;;;7.17;2.98;;;;;;;11.81;100.00;100105.76;1781143;80;21058;-60
2022/05/08 03:42:45;;;;;;;6.22;2.92;;;;;;;11.85;100.00;100105.50;1759747;80;21101;-60
2022/05/08 03:45:13;;;;;;;8.75;3.20;;;;;;;11.91;100.00;100103.86;1784711;78;21049;-61
2022/05/08 03:47:40;;;;;;;6.62;2.67;;;;;;;11.98;100.00;100101.69;1779260;78;21537;-60
2022/05/08 03:50:08;;;;;;;;;;;;;;;12.05;100.00;100103.31;1786506;78;21077;-61
2022/05/08 03:52:34;;;;;;;7.70;3.00;;;;;;;12.14;100.00;100104.42;1767667;80;20101;-61
2022/05/08 03:55:03;;;;;;;5.10;2.58;;;;;;;12.18;100.00;100101.43;1743483;81;21541;-61
2022/05/08 03:57:30;;;;;;;6.55;2.58;;;;;;;12.31;100.00;100098.14;1753577;81;21094;-61
2022/05/08 03:59:56;;;;;;;7.78;3.08;;;;;;;12.42;100.00;100099.77;1791790;80;21058;-61
2022/05/08 04:02:23;;;;;;;8.03;2.95;;;;;;;12.48;100.00;100104.12;1775215;80;21906;-61
2022/05/08 04:04:49;;;;;;;6.62;3.10;;;;;;;12.51;100.00;100100.83;1776806;80;21081;-61
2022/05/08 04:07:16;;;;;;;5.80;2.95;;;;;;;12.51;100.00;100101.37;1797164;80;21595;-61
2022/05/08 04:09:45;;;;;;;7.30;2.92;;;;;;;12.51;100.00;100106.30;1777909;80;21061;-61
2022/05/08 04:12:11;;;;;;;7.22;2.90;;;;;;;12.51;100.00;100111.76;1793507;80;21658;-61
2022/05/08 04:14:39;;;;;;;4.85;2.87;;;;;;;12.56;100.00;100111.77;1795492;80;21113;-61
2022/05/08 04:17:05;;;;;;;;;;;;;;;12.66;100.00;100108.19;1796520;78;21537;-62
2022/05/08 04:19:33;;;;;;;5.92;2.80;;;;;;;12.83;100.00;100115.52;1791458;80;20210;-61
2022/05/08 04:28:18;;;;;;;8.63;3.92;;;;;;;14.24;100.00;100112.61;1759977;79;39046;-63
2022/05/08 04:30:47;;;;;;;10.45;3.40;;;;;;;14.72;100.00;100116.29;1720164;82;21198;-61
2022/05/08 04:33:13;;;;;;;7.35;3.30;;;;;;;15.04;100.00;100107.44;1718787;83;20990;-60
2022/05/08 04:35:40;;;;;;;;;;;;;;;15.06;100.00;100113.44;1717089;82;21089;-60
2022/05/08 04:38:06;;;;;;;8.55;3.77;;;;;;;15.01;100.00;100110.77;1716880;82;20147;-60
2022/05/08 04:40:33;;;;;;;6.40;3.40;;;;;;;14.88;100.00;100113.64;1722182;82;21105;-61
2022/05/08 04:43:00;;;;;;;;;;;;;;;14.81;100.00;100118.64;1721205;82;21058;-60
2022/05/08 04:45:26;;;;;;;9.10;3.60;;;;;;;14.77;100.00;100121.73;1712008;82;20146;-62
2022/05/08 04:47:53;;;;;;;7.70;3.45;;;;;;;14.67;100.00;100121.80;1718728;82;21102;-61
2022/05/08 04:50:19;;;;;;;9.13;3.83;;;;;;;14.67;100.00;100116.33;1721329;82;21581;-60
2022/05/08 04:52:45;;;;;;;;;;;;;;;14.67;100.00;100115.78;1719882;82;21536;-60
2022/05/08 04:55:12;;;;;;;8.65;3.37;;;;;;;14.70;100.00;100119.89;1718242;82;20109;-61
2022/05/08 04:57:39;;;;;;;8.50;3.52;;;;;;;14.61;100.00;100111.47;1721427;82;21045;-60
2022/05/08 05:00:06;;;;;;;;;;;;;;;14.63;100.00;100112.55;1726143;82;21105;-60
2022/05/08 05:02:34;;;;;;;6.75;3.35;;;;;;;14.69;100.00;100116.88;1702798;82;20726;-60
2022/05/08 05:05:01;;;;;;;;;;;;;;;14.69;100.00;100123.72;1720175;82;21027;-60
2022/05/08 05:07:28;;;;;;;7.42;3.50;;;;;;;14.78;100.00;100117.86;1715410;82;20133;-60
2022/05/08 05:09:54;;;;;;;8.08;3.55;;;;;;;14.84;100.00;100115.35;1719834;82;21093;-60
2022/05/08 05:12:20;;;;;;;;;;;;;;;15.04;100.00;100119.23;1724903;82;21073;-60
2022/05/08 05:14:47;;;;;;;10.32;3.67;;;;;;;15.25;100.00;100124.73;1713848;82;20239;-60
2022/05/08 05:17:13;;;;;;;7.22;3.55;;;;;;;15.37;100.00;100126.48;1725550;82;21078;-60
2022/05/08 05:19:40;;;;;;;;;;;;;;;15.57;100.00;100124.63;1727074;82;21134;-60
2022/05/08 05:22:06;;;;;;;10.88;3.60;;;;;;;15.74;100.00;100126.30;1714427;82;20501;-60
2022/05/08 05:24:33;;;;;;;11.22;3.87;;;;;;;15.72;100.00;100124.42;1723962;82;21070;-60
2022/05/08 05:26:59;;;;;;;;;;;;;;;15.76;100.00;100126.84;1719850;82;21106;-61
2022/05/08 05:29:25;;;;;;;7.33;3.60;;;;;;;15.75;100.00;100133.44;1706745;83;20105;-62
2022/05/08 05:31:52;;;;;;;8.28;3.70;;;;;;;15.68;100.00;100131.61;1694440;83;21128;-60
2022/05/08 05:34:18;;;;;;;;;;;;;;;15.73;100.00;100132.34;1708128;82;21672;-61
2022/05/08 05:36:46;;;;;;;;;;;;;;;15.74;100.00;100131.23;1713404;83;20102;-58
2022/05/08 05:39:12;;;;;;;6.42;3.50;;;;;;;15.68;100.00;100130.23;1707884;83;20134;-59
2022/05/08 05:41:38;;;;;;;;;;;;;;;15.63;100.00;100126.18;1711877;82;21043;-60
2022/05/08 05:44:05;;;;;;;9.45;3.58;;;;;;;15.70;100.00;100126.62;1709885;82;20125;-60
2022/05/08 05:49:17;;;;;;;9.05;3.52;;;;;;;15.87;100.00;100130.49;1706350;83;21034;-59
2022/05/08 05:51:44;;;;;;;9.45;3.77;;;;;;;16.01;100.00;100135.26;1718478;82;21066;-58
2022/05/08 05:54:10;;;;;;;7.58;4.42;;;;;;;16.08;100.00;100136.52;1709005;82;21097;-60
2022/05/08 05:56:37;;;;;;;7.75;3.60;;;;;;;16.12;100.00;100132.03;1704460;83;21082;-61
2022/05/08 05:59:04;;;;;;;9.30;4.00;;;;;;;16.17;100.00;100134.72;1703494;83;21098;-59
2022/05/08 06:01:30;;;;;;;11.73;4.00;;;;;;;16.24;100.00;100137.89;1679727;83;21082;-60
2022/05/08 06:03:57;;;;;;;10.98;3.65;;;;;;;16.31;100.00;100143.83;1715114;82;21134;-62
2022/05/08 06:06:23;;;;;;;;;;;;;;;16.38;100.00;100141.52;1708271;82;20999;-60
2022/05/08 06:11:20;;;;;;;9.45;4.10;;;;;;;16.58;100.00;100132.70;1785195;79;22827;-59
2022/05/08 06:13:47;;;;;;;9.10;4.05;;;;;;;16.57;100.00;100131.89;1757242;80;21121;-59
2022/05/08 06:16:13;;;;;;;7.35;3.55;;;;;;;16.69;100.00;100139.63;1757371;80;21105;-58
2022/05/08 06:18:40;;;;;;;9.05;3.98;;;;;;;16.86;100.00;100131.05;1752380;80;21529;-58
2022/05/08 06:21:06;;;;;;;7.20;3.80;;;;;;;17.13;100.00;100126.70;1748967;80;21866;-58
2022/05/08 06:23:33;;;;;;;10.78;4.70;;;;;;;17.30;100.00;100125.53;1747838;80;21063;-59
2022/05/08 06:26:02;;;;;;;7.50;4.58;;;;;;;17.45;100.00;100125.22;1759523;80;21028;-60
2022/05/08 06:28:31;;;;;;;8.88;4.80;;;;;;;17.62;100.00;100135.05;1759844;80;20982;-60
2022/05/08 06:30:57;;;;;;;9.35;4.28;;;;;;;17.86;100.00;100124.59;1760642;80;21110;-61
2022/05/08 06:33:24;;;;;;;10.95;5.10;;;;;;;18.14;100.00;100131.41;1756972;80;20963;-60
2022/05/08 06:35:50;;;;;;;10.30;5.15;;;;;;;18.28;100.00;100126.66;1759483;80;21014;-61
2022/05/08 06:38:17;;;;;;;11.40;5.00;;;;;;;18.31;100.00;100122.70;1759592;80;20957;-60
2022/05/08 06:40:45;;;;;;;9.70;5.47;;;;;;;18.38;100.00;100127.77;1754779;80;21669;-60
2022/05/08 06:43:11;;;;;;;10.63;4.72;;;;;;;18.41;100.00;100123.01;1748641;81;21470;-59
2022/05/08 06:45:38;;;;;;;8.05;5.10;;;;;;;18.43;100.00;100129.56;1746537;80;21013;-59
2022/05/08 06:48:08;;;;;;;10.75;5.17;;;;;;;18.53;100.00;100124.64;1759866;80;21424;-59
2022/05/08 06:50:35;;;;;;;9.45;4.80;;;;;;;18.67;100.00;100125.37;1725017;81;21083;-60
2022/05/08 06:53:04;;;;;;;9.25;4.78;;;;;;;18.80;100.00;100122.30;1748631;81;21014;-60
2022/05/08 06:55:33;;;;;;;11.40;5.40;;;;;;;18.85;100.00;100129.03;1720593;82;21086;-61
2022/05/08 06:57:59;;;;;;;12.58;5.17;;;;;;;18.86;100.00;100129.30;1667147;84;21015;-60
2022/05/08 07:03:11;;;;;;;12.50;4.83;;;;;;;18.75;100.00;100127.94;1697683;84;21641;-59
2022/05/08 07:05:40;;;;;;;12.55;4.92;;;;;;;18.64;100.00;100127.39;1723306;82;21604;-60
2022/05/08 07:08:07;;;;;;;8.68;5.10;;;;;;;18.50;100.00;100132.13;1679101;81;21510;-61
2022/05/08 07:10:35;;;;;;;11.03;5.00;;;;;;;18.44;100.00;100128.45;1712628;81;21112;-60
2022/05/08 07:13:02;;;;;;;12.35;5.40;;;;;;;18.44;100.00;100135.34;1748176;81;21519;-60
2022/05/08 07:15:29;;;;;;;9.85;4.75;;;;;;;18.50;100.00;100126.62;1745670;81;21451;-62
2022/05/08 07:17:55;;;;;;;14.90;5.30;;;;;;;18.73;100.00;100132.97;1731016;82;20948;-62
2022/05/08 07:20:21;;;;;;;10.80;4.72;;;;;;;19.10;100.00;100127.52;1740732;81;21603;-62
2022/05/08 07:22:49;;;;;;;11.00;5.05;;;;;;;19.53;100.00;100127.70;1737428;81;20956;-61
2022/05/08 07:25:16;;;;;;;9.65;5.10;;;;;;;20.08;100.00;100128.75;1688328;83;21109;-64
2022/05/08 07:27:43;;;;;;;9.85;5.17;;;;;;;20.51;99.77;100136.23;1706448;83;21042;-61
2022/05/08 07:30:11;;;;;;;6.67;4.42;;;;;;;20.77;92.09;100133.63;1680456;83;21137;-62
2022/05/08 07:32:38;;;;;;;8.55;4.75;;;;;;;20.98;92.96;100125.98;1685289;84;21001;-61
2022/05/08 07:37:51;;;;;;;11.95;4.65;;;;;;;21.78;85.34;100123.58;1747326;82;20979;-61
2022/05/08 07:40:17;;;;;;;9.20;4.42;;;;;;;22.19;88.17;100133.30;1746728;81;21569;-61
2022/05/08 07:42:44;;;;;;;10.28;4.70;;;;;;;22.51;76.15;100132.27;1748369;81;20988;-61
2022/05/08 07:45:12;;;;;;;9.55;4.60;;;;;;;22.75;70.29;100137.34;1746125;81;21050;-60
2022/05/08 07:47:39;;;;;;;13.70;4.92;;;;;;;22.98;62.50;100133.59;1746991;82;20966;-61
2022/05/08 07:50:08;;;;;;;8.35;4.65;;;;;;;23.15;61.19;100125.05;1746891;81;21027;-59
2022/05/08 07:52:39;;;;;;;9.18;5.33;;;;;;;23.26;58.03;100123.44;1745379;81;21016;-59
2022/05/08 07:55:07;;;;;;;9.48;4.60;;;;;;;23.37;59.30;100118.80;1707255;82;21102;-62
2022/05/08 07:57:34;;;;;;;12.25;4.70;;;;;;;23.43;61.28;100124.38;1744082;81;21023;-60
2022/05/08 08:00:02;;;;;;;11.05;4.78;;;;;;;23.60;62.86;100126.33;1745630;81;21615;-62
2022/05/08 08:02:30;;;;;;;7.95;4.65;;;;;;;23.88;56.19;100136.13;1743320;81;21004;-61
2022/05/08 08:04:57;;;;;;;9.00;4.25;;;;;;;23.99;53.44;100130.89;1721867;82;21071;-60
2022/05/08 08:07:23;;;;;;;7.87;4.85;;;;;;;24.15;55.64;100131.23;1743196;82;21053;-61
2022/05/08 08:09:49;;;;;;;7.40;4.35;;;;;;;24.34;55.21;100129.17;1747677;81;21094;-60
2022/05/08 08:12:17;;;;;;;8.00;4.28;;;;;;;24.49;49.61;100134.56;1734033;81;21075;-60
2022/05/08 08:14:43;;;;;;;11.95;4.42;;;;;;;24.55;52.13;100136.73;1753537;81;21560;-60
2022/05/08 08:17:10;;;;;;;12.13;4.75;;;;;;;24.65;50.95;100130.68;1738027;82;21023;-60
2022/05/08 08:19:36;;;;;;;8.05;4.03;;;;;;;24.77;49.24;100129.20;1738814;81;21066;-60
2022/05/08 08:22:03;;;;;;;8.50;4.40;;;;;;;24.83;49.26;100134.52;1729539;80;21003;-61
2022/05/08 08:24:30;;;;;;;10.08;4.33;;;;;;;24.70;45.08;100125.41;1727163;81;21078;-60
2022/05/08 08:26:56;;;;;;;7.55;4.55;;;;;;;24.13;44.87;100133.55;1748738;81;21070;-61
2022/05/08 08:29:23;;;;;;;8.55;4.80;;;;;;;23.63;46.65;100120.67;1753510;80;21081;-60
2022/05/08 08:31:49;;;;;;;8.00;4.37;;;;;;;23.57;49.37;100123.44;1728698;82;21075;-59
2022/05/08 08:34:16;;;;;;;10.05;4.50;;;;;;;23.52;49.89;100120.34;1745155;81;21106;-60
2022/05/08 08:36:42;;;;;;;8.40;4.53;;;;;;;23.17;50.31;100120.52;1751692;81;21074;-60
2022/05/08 08:39:09;;;;;;;8.58;4.10;;;;;;;23.05;54.07;100123.30;1749210;82;21072;-59
2022/05/08 08:41:36;;;;;;;8.78;4.53;;;;;;;23.12;56.97;100118.80;1733647;80;21557;-60
2022/05/08 08:49:42;;;;;;;13.58;4.62;;;;;;;23.50;56.20;100112.91;1745883;80;21062;-61
2022/05/08 08:52:09;;;;;;;8.88;3.98;;;;;;;23.72;53.30;100109.65;1751220;80;20989;-61
2022/05/08 08:54:37;;;;;;;6.25;4.55;;;;;;;23.79;50.39;100112.64;1755948;81;21047;-60
2022/05/08 08:57:03;;;;;;;11.05;3.83;;;;;;;23.98;51.79;100111.22;1749469;81;21034;-61
2022/05/08 08:59:30;;;;;;;9.53;4.35;;;;;;;24.19;49.99;100119.64;1751237;80;20995;-61
2022/05/08 09:01:57;;;;;;;7.17;3.85;;;;;;;24.44;51.98;100112.58;1752567;80;21303;-61
2022/05/08 09:04:23;;;;;;;7.78;4.03;;;;;;;24.76;47.93;100111.48;1749215;80;21060;-61
2022/05/08 09:06:50;;;;;;;9.08;4.22;;;;;;;24.90;47.83;100106.89;1722081;82;21692;-62
2022/05/08 09:09:27;;;;;;;9.28;4.30;;;;;;;25.01;44.38;100107.98;1745205;80;21039;-61
2022/05/08 09:11:56;;;;;;;8.53;4.40;;;;;;;25.13;48.27;100104.50;1745947;80;21024;-60
2022/05/08 09:14:35;;;;;;;10.00;4.30;;;;;;;25.36;44.78;100092.72;1746824;81;21036;-61
2022/05/08 09:17:03;;;;;;;11.28;5.17;;;;;;;25.45;42.65;100106.67;1743499;81;21011;-60
2022/05/08 09:19:38;;;;;;;10.10;5.33;;;;;;;25.39;43.85;100103.14;1724326;81;21620;-60
2022/05/08 09:22:06;;;;;;;14.18;9.50;;;;;;;25.29;43.48;100092.55;1745118;81;21059;-61
2022/05/08 09:24:35;;;;;;;8.43;5.85;;;;;;;24.90;44.32;100100.74;1706547;83;21576;-61
2022/05/08 09:27:17;;;;;;;14.10;6.75;;;;;;;24.61;45.53;100106.69;1710458;83;21076;-59
2022/05/08 09:29:45;;;;;;;11.10;8.10;;;;;;;24.39;47.13;100100.30;1735385;81;21131;-59
2022/05/08 09:32:38;;;;;;;8.68;4.80;;;;;;;24.10;47.65;100106.98;1725062;82;21077;-59
2022/05/08 09:35:08;;;;;;;7.28;3.98;;;;;;;23.74;56.28;100085.66;1724506;81;21078;-59
2022/05/08 09:37:53;;;;;;;9.35;3.90;;;;;;;23.74;56.28;100085.66;1744299;81;21059;-58
2022/05/08 09:40:21;;;;;;;7.85;4.62;;;;;;;23.79;51.79;100092.38;1743950;81;21173;-60
2022/05/08 09:42:48;;;;;;;9.53;3.72;;;;;;;23.76;53.68;100093.08;1743373;81;20964;-60
2022/05/08 09:45:14;;;;;;;10.65;6.15;;;;;;;23.78;53.64;100085.19;1710829;81;21149;-59
2022/05/08 09:47:48;;;;;;;10.48;4.85;;;;;;;23.76;52.46;100084.74;1737167;81;21020;-59
2022/05/08 09:50:17;;;;;;;8.80;4.40;;;;;;;23.76;52.46;100084.74;1725257;82;21055;-60
2022/05/08 09:52:45;;;;;;;6.22;3.87;;;;;;;23.67;47.68;100081.27;1737349;81;21910;-60
2022/05/08 09:55:13;;;;;;;9.93;4.40;;;;;;;23.54;50.94;100080.50;1741221;81;21067;-59
2022/05/08 09:57:39;;;;;;;9.25;4.08;;;;;;;23.41;53.79;100080.30;1715757;82;21491;-60
2022/05/08 10:00:08;;;;;;;10.13;4.00;;;;;;;23.16;54.27;100083.63;1734983;81;21574;-59
2022/05/08 10:02:43;;;;;;;10.28;4.33;;;;;;;22.92;51.29;100072.48;1712765;84;21459;-58
2022/05/08 10:05:09;;;;;;;9.23;3.95;;;;;;;22.79;55.66;100076.41;1709255;83;21024;-59
2022/05/08 10:07:36;;;;;;;9.43;4.20;;;;;;;22.83;54.30;100080.13;1698398;83;21022;-60
2022/05/08 10:15:35;;;;;;;7.62;4.10;;;;;;;22.48;56.84;100081.63;1653480;83;21019;-61
2022/05/08 10:18:25;;;;;;;9.28;4.20;;;;;;;22.40;59.21;100076.41;1731407;81;21012;-68
2022/05/08 10:21:07;;;;;;;9.83;4.10;;;;;;;22.51;70.83;100072.62;1745538;81;21103;-59
2022/05/08 10:23:43;;;;;;;10.40;3.90;;;;;;;22.73;62.93;100077.80;1741731;81;21543;-59
2022/05/08 10:26:18;;;;;;;12.37;4.22;;;;;;;22.77;58.30;100078.16;1730232;81;21464;-60
2022/05/08 10:29:12;;;;;;;6.72;3.60;;;;;;;22.71;55.04;100068.41;1732085;81;21437;-58
2022/05/08 10:31:50;;;;;;;8.20;4.65;;;;;;;22.58;57.09;100078.42;1737901;81;21043;-59
2022/05/08 10:34:32;;;;;;;9.45;3.98;;;;;;;22.41;67.77;100078.61;1698781;83;21550;-58
2022/05/08 10:37:16;;;;;;;8.98;3.90;;;;;;;22.15;65.79;100075.52;1733492;81;21017;-58
2022/05/08 10:39:45;;;;;;;8.58;4.03;;;;;;;21.96;71.20;100071.05;1745501;81;21051;-57
2022/05/08 10:42:33;;;;;;;7.78;3.85;;;;;;;21.86;69.21;100065.87;1735622;81;21019;-57
2022/05/08 10:45:01;;;;;;;10.10;4.37;;;;;;;21.70;73.80;100042.70;1741455;81;21094;-58
2022/05/08 10:47:42;;;;;;;11.43;4.03;;;;;;;21.85;80.27;100060.11;1740333;81;21017;-60
2022/05/08 10:50:12;;;;;;;9.50;4.33;;;;;;;21.99;71.31;100052.35;1730475;81;21063;-59
2022/05/08 10:52:44;;;;;;;8.73;3.60;;;;;;;22.16;62.92;100038.89;1740375;82;20971;-60
2022/05/08 10:55:14;;;;;;;10.32;3.85;;;;;;;22.21;61.95;100036.70;1745063;81;21024;-61
2022/05/08 10:57:43;;;;;;;10.08;4.30;;;;;;;22.36;66.83;100033.05;1745535;82;21450;-60
2022/05/08 11:00:18;;;;;;;7.17;4.10;;;;;;;22.58;63.96;100032.64;1744732;81;21066;-58
2022/05/08 11:02:52;;;;;;;13.13;4.03;;;;;;;22.84;64.52;100029.59;1736574;82;21636;-59
2022/05/08 11:05:29;;;;;;;9.08;4.22;;;;;;;23.02;55.50;100022.66;1746711;81;21897;-61
2022/05/08 11:07:58;;;;;;;8.78;4.28;;;;;;;23.01;52.68;100027.39;1735101;81;21043;-60
2022/05/08 11:10:32;;;;;;;13.22;4.35;;;;;;;22.96;52.93;100021.25;1744713;81;21016;-61
2022/05/08 11:13:09;;;;;;;9.00;4.28;;;;;;;22.99;55.63;100017.20;1733999;82;20988;-58
2022/05/08 11:15:39;;;;;;;;;;;;;;;23.12;54.21;100011.08;1749288;81;21006;-60
2022/05/08 11:18:17;;;;;;;9.10;3.80;;;;;;;23.23;52.42;100006.67;1743818;81;20143;-58
2022/05/08 11:20:50;;;;;;;8.80;3.90;;;;;;;23.27;51.36;100004.24;1737753;81;21602;-59
2022/05/08 11:23:23;;;;;;;10.90;3.72;;;;;;;23.42;48.40;100001.32;1736161;82;21472;-59
2022/05/08 11:26:02;;;;;;;8.90;4.40;;;;;;;23.48;47.18;100010.23;1731900;81;21589;-59
2022/05/08 11:28:31;;;;;;;8.20;4.20;;;;;;;23.52;44.62;99999.47;1739503;81;20991;-60
2022/05/08 11:30:59;;;;;;;10.98;4.30;;;;;;;23.59;46.19;99996.91;1725146;82;21059;-57
2022/05/08 11:36:28;;;;;;;5.37;3.52;;;;;;;23.90;47.23;99991.22;1719444;82;21534;-61
2022/05/08 11:38:56;;;;;;;;;;;;;;;24.03;43.70;99984.42;1738969;81;21102;-58
2022/05/08 11:41:47;;;;;;;11.22;3.75;;;;;;;24.05;42.89;99992.66;1746095;81;20131;-59
2022/05/08 11:44:20;;;;;;;9.70;4.47;;;;;;;23.92;41.64;99989.69;1746484;81;21138;-59
2022/05/08 11:46:58;;;;;;;7.72;3.77;;;;;;;23.88;43.99;99981.83;1746088;82;21064;-59
2022/05/08 11:49:27;;;;;;;6.92;3.77;;;;;;;23.89;41.97;99984.84;1743742;81;21039;-59
2022/05/08 11:52:01;;;;;;;11.18;4.12;;;;;;;23.77;40.53;99977.97;1746614;81;21011;-60
2022/05/08 11:54:33;;;;;;;10.48;3.92;;;;;;;23.64;41.91;99977.77;1736712;81;21557;-60
2022/05/08 11:57:21;;;;;;;10.58;3.92;;;;;;;23.56;43.77;99974.57;1744454;81;20996;-59
2022/05/08 11:59:52;;;;;;;10.63;3.83;;;;;;;23.55;42.56;99970.16;1724398;81;21408;-58
2022/05/08 12:02:19;;;;;;;6.90;3.92;;;;;;;23.45;40.26;99973.44;1730237;81;21668;-58
2022/05/08 12:04:55;;;;;;;9.83;4.95;;;;;;;23.40;40.66;99967.52;1722672;82;21057;-63
2022/05/08 12:07:22;;;;;;;8.60;4.62;;;;;;;23.41;42.99;99967.78;1721285;82;21033;-59
2022/05/08 12:09:53;;;;;;;7.25;3.98;;;;;;;23.60;44.71;99965.73;1744741;81;21035;-59